Maytown, Washington
Current Conditions -  °F | °C
As of 7:54 AM on Wednesday 28 Jan 2015 (Local Time) from KOLM Reporting Station
Overcast Overcast  
Wind Chill: 42°   Ceiling: 1500
Heat Index: 42°   Visibility: 10mi
Dew Point: 41°   Wind: 0mph
Humidity: 96%   Direction: NA
Pressure: 30.36"   Gusts: NA
Location:  46.9755°N, 122.872°W
Report Text: KOLM 281554Z 00000KT 10SM BKN015 OVC027 06/05 A3036 RMK AO2 SLP282 T00560050
Loading
Personal Weather Stations






























Interactive Weather Map New forecast layout! Learn more

10-Day Weather Forecast

Advertisements
Track Severe Weather on mobile